sensor_id;sensor_type;location;lat;lon;timestamp;pressure;altitude;pressure_sealevel;temperature;humidity
65376;BME280;51976;47.332;9.404;2024-03-23T00:54:18;92340.88;;;8.31;100.00
65376;BME280;51976;47.332;9.404;2024-03-23T00:56:44;92342.69;;;8.45;100.00
65376;BME280;51976;47.332;9.404;2024-03-23T00:59:09;92344.59;;;8.45;100.00
65376;BME280;51976;47.332;9.404;2024-03-23T01:01:35;92329.66;;;7.90;100.00
65376;BME280;51976;47.332;9.404;2024-03-23T01:04:00;92337.56;;;7.66;100.00
65376;BME280;51976;47.332;9.404;2024-03-23T01:06:25;92331.91;;;7.67;100.00
65376;BME280;51976;47.332;9.404;2024-03-23T01:08:51;92342.78;;;7.91;100.00
65376;BME280;51976;47.332;9.404;2024-03-23T01:11:17;92333.19;;;7.26;100.00
65376;BME280;51976;47.332;9.404;2024-03-23T01:13:43;92333.06;;;7.51;100.00
65376;BME280;51976;47.332;9.404;2024-03-23T01:16:08;92334.97;;;7.45;100.00
65376;BME280;51976;47.332;9.404;2024-03-23T01:18:33;92327.06;;;7.69;100.00
65376;BME280;51976;47.332;9.404;2024-03-23T01:20:59;92329.44;;;7.76;100.00
65376;BME280;51976;47.332;9.404;2024-03-23T01:23:24;92327.16;;;7.98;100.00
65376;BME280;51976;47.332;9.404;2024-03-23T01:25:53;92327.38;;;8.07;100.00
65376;BME280;51976;47.332;9.404;2024-03-23T01:28:22;92313.06;;;7.77;100.00
65376;BME280;51976;47.332;9.404;2024-03-23T01:30:47;92303.44;;;7.71;100.00
65376;BME280;51976;47.332;9.404;2024-03-23T01:33:13;92316.31;;;7.74;100.00
65376;BME280;51976;47.332;9.404;2024-03-23T01:35:39;92314.69;;;7.73;100.00
65376;BME280;51976;47.332;9.404;2024-03-23T01:38:04;92315.72;;;7.82;100.00
65376;BME280;51976;47.332;9.404;2024-03-23T01:40:30;92307.69;;;7.82;100.00
65376;BME280;51976;47.332;9.404;2024-03-23T01:43:05;92311.06;;;7.93;100.00
65376;BME280;51976;47.332;9.404;2024-03-23T01:45:31;92308.22;;;7.79;100.00
65376;BME280;51976;47.332;9.404;2024-03-23T01:47:57;92287.38;;;7.66;100.00
65376;BME280;51976;47.332;9.404;2024-03-23T01:50:23;92305.13;;;7.62;100.00
65376;BME280;51976;47.332;9.404;2024-03-23T01:52:51;92301.13;;;7.99;100.00
65376;BME280;51976;47.332;9.404;2024-03-23T01:55:17;92295.00;;;8.27;100.00
65376;BME280;51976;47.332;9.404;2024-03-23T01:57:42;92290.66;;;8.36;100.00
65376;BME280;51976;47.332;9.404;2024-03-23T02:00:08;92298.78;;;7.92;100.00
65376;BME280;51976;47.332;9.404;2024-03-23T02:02:44;92290.31;;;8.09;100.00
65376;BME280;51976;47.332;9.404;2024-03-23T02:05:13;92293.03;;;8.43;100.00
65376;BME280;51976;47.332;9.404;2024-03-23T02:07:39;92279.47;;;8.53;100.00
65376;BME280;51976;47.332;9.404;2024-03-23T02:10:07;92278.72;;;8.76;100.00
65376;BME280;51976;47.332;9.404;2024-03-23T02:12:32;92266.88;;;8.77;100.00
65376;BME280;51976;47.332;9.404;2024-03-23T02:14:58;92271.72;;;8.75;100.00
65376;BME280;51976;47.332;9.404;2024-03-23T02:17:23;92268.16;;;8.85;100.00
65376;BME280;51976;47.332;9.404;2024-03-23T02:19:50;92268.09;;;8.90;100.00
65376;BME280;51976;47.332;9.404;2024-03-23T02:22:15;92261.16;;;8.60;100.00
65376;BME280;51976;47.332;9.404;2024-03-23T02:24:41;92255.97;;;8.69;100.00
65376;BME280;51976;47.332;9.404;2024-03-23T02:27:06;92246.81;;;8.70;100.00
65376;BME280;51976;47.332;9.404;2024-03-23T02:29:32;92248.84;;;8.54;100.00
65376;BME280;51976;47.332;9.404;2024-03-23T02:31:57;92237.66;;;8.13;100.00
65376;BME280;51976;47.332;9.404;2024-03-23T02:34:24;92252.38;;;7.87;100.00
65376;BME280;51976;47.332;9.404;2024-03-23T02:36:49;92236.66;;;8.04;100.00
65376;BME280;51976;47.332;9.404;2024-03-23T02:39:15;92211.56;;;7.90;100.00
65376;BME280;51976;47.332;9.404;2024-03-23T02:41:40;92214.78;;;7.92;100.00
65376;BME280;51976;47.332;9.404;2024-03-23T02:44:05;92229.16;;;8.01;100.00
65376;BME280;51976;47.332;9.404;2024-03-23T02:46:31;92217.31;;;8.07;100.00
65376;BME280;51976;47.332;9.404;2024-03-23T02:48:57;92221.69;;;8.27;100.00
65376;BME280;51976;47.332;9.404;2024-03-23T02:51:22;92214.63;;;8.41;100.00
65376;BME280;51976;47.332;9.404;2024-03-23T02:53:48;92207.00;;;8.19;100.00
65376;BME280;51976;47.332;9.404;2024-03-23T02:56:13;92194.16;;;8.16;100.00
65376;BME280;51976;47.332;9.404;2024-03-23T02:58:41;92204.09;;;8.44;100.00
65376;BME280;51976;47.332;9.404;2024-03-23T03:01:07;92197.47;;;8.37;100.00
65376;BME280;51976;47.332;9.404;2024-03-23T03:03:32;92197.66;;;8.45;100.00
65376;BME280;51976;47.332;9.404;2024-03-23T03:05:57;92195.47;;;8.47;100.00
65376;BME280;51976;47.332;9.404;2024-03-23T03:08:23;92191.06;;;8.28;100.00
65376;BME280;51976;47.332;9.404;2024-03-23T03:10:48;92181.06;;;8.38;100.00
65376;BME280;51976;47.332;9.404;2024-03-23T03:13:14;92162.19;;;8.20;100.00
65376;BME280;51976;47.332;9.404;2024-03-23T03:15:41;92178.41;;;8.04;100.00
65376;BME280;51976;47.332;9.404;2024-03-23T03:18:06;92181.69;;;8.25;100.00
65376;BME280;51976;47.332;9.404;2024-03-23T03:20:31;92169.19;;;8.44;100.00
65376;BME280;51976;47.332;9.404;2024-03-23T03:22:57;92170.50;;;8.47;100.00
65376;BME280;51976;47.332;9.404;2024-03-23T03:25:22;92164.44;;;8.36;100.00
65376;BME280;51976;47.332;9.404;2024-03-23T03:27:48;92160.72;;;8.27;100.00
65376;BME280;51976;47.332;9.404;2024-03-23T03:30:13;92142.91;;;8.12;100.00
65376;BME280;51976;47.332;9.404;2024-03-23T03:32:38;92154.31;;;8.23;100.00
65376;BME280;51976;47.332;9.404;2024-03-23T03:35:04;92147.03;;;8.00;100.00
65376;BME280;51976;47.332;9.404;2024-03-23T03:37:30;92142.47;;;8.00;100.00
65376;BME280;51976;47.332;9.404;2024-03-23T03:39:55;92144.28;;;7.81;100.00
65376;BME280;51976;47.332;9.404;2024-03-23T03:42:20;92139.50;;;8.02;100.00
65376;BME280;51976;47.332;9.404;2024-03-23T03:44:46;92126.63;;;8.04;100.00
65376;BME280;51976;47.332;9.404;2024-03-23T03:47:11;92125.81;;;8.27;100.00
65376;BME280;51976;47.332;9.404;2024-03-23T03:49:36;92130.56;;;8.40;100.00
65376;BME280;51976;47.332;9.404;2024-03-23T03:52:02;92120.44;;;8.03;100.00
65376;BME280;51976;47.332;9.404;2024-03-23T03:54:27;92114.69;;;8.15;100.00
65376;BME280;51976;47.332;9.404;2024-03-23T03:56:53;92106.06;;;8.18;100.00
65376;BME280;51976;47.332;9.404;2024-03-23T03:59:18;92107.00;;;8.32;100.00
65376;BME280;51976;47.332;9.404;2024-03-23T04:01:45;92107.53;;;8.29;100.00
65376;BME280;51976;47.332;9.404;2024-03-23T04:04:11;92111.97;;;8.20;100.00
65376;BME280;51976;47.332;9.404;2024-03-23T04:06:36;92114.84;;;8.24;100.00
65376;BME280;51976;47.332;9.404;2024-03-23T04:09:02;92103.25;;;8.28;100.00
65376;BME280;51976;47.332;9.404;2024-03-23T04:11:27;92104.00;;;8.10;100.00
65376;BME280;51976;47.332;9.404;2024-03-23T04:13:53;92110.84;;;8.21;100.00
65376;BME280;51976;47.332;9.404;2024-03-23T04:16:28;92104.88;;;8.29;100.00
65376;BME280;51976;47.332;9.404;2024-03-23T04:18:53;92109.66;;;8.08;100.00
65376;BME280;51976;47.332;9.404;2024-03-23T04:21:19;92089.56;;;8.06;100.00
65376;BME280;51976;47.332;9.404;2024-03-23T04:23:45;92093.81;;;7.83;100.00
65376;BME280;51976;47.332;9.404;2024-03-23T04:26:11;92087.31;;;7.89;100.00
65376;BME280;51976;47.332;9.404;2024-03-23T04:28:36;92096.63;;;7.97;100.00
65376;BME280;51976;47.332;9.404;2024-03-23T04:31:04;92081.72;;;7.86;100.00
65376;BME280;51976;47.332;9.404;2024-03-23T04:33:30;92092.84;;;7.11;100.00
65376;BME280;51976;47.332;9.404;2024-03-23T04:35:56;92094.75;;;7.05;100.00
65376;BME280;51976;47.332;9.404;2024-03-23T04:38:21;92088.84;;;7.03;100.00
65376;BME280;51976;47.332;9.404;2024-03-23T04:40:55;92083.78;;;7.36;100.00
65376;BME280;51976;47.332;9.404;2024-03-23T04:43:20;92065.41;;;7.53;100.00
65376;BME280;51976;47.332;9.404;2024-03-23T04:45:46;92072.97;;;7.75;100.00
65376;BME280;51976;47.332;9.404;2024-03-23T04:48:11;92074.84;;;7.74;100.00
65376;BME280;51976;47.332;9.404;2024-03-23T04:50:37;92055.38;;;7.64;100.00
65376;BME280;51976;47.332;9.404;2024-03-23T04:53:02;92060.91;;;7.72;100.00
65376;BME280;51976;47.332;9.404;2024-03-23T04:55:28;92055.50;;;7.77;100.00
65376;BME280;51976;47.332;9.404;2024-03-23T04:57:53;92052.41;;;7.65;100.00
65376;BME280;51976;47.332;9.404;2024-03-23T05:00:19;92049.25;;;7.58;100.00
65376;BME280;51976;47.332;9.404;2024-03-23T05:02:44;92055.19;;;7.55;100.00
65376;BME280;51976;47.332;9.404;2024-03-23T05:05:10;92036.53;;;7.69;100.00
65376;BME280;51976;47.332;9.404;2024-03-23T05:07:36;92036.25;;;7.41;100.00
65376;BME280;51976;47.332;9.404;2024-03-23T05:10:01;92046.81;;;7.62;100.00
65376;BME280;51976;47.332;9.404;2024-03-23T05:12:27;92034.34;;;7.47;100.00
65376;BME280;51976;47.332;9.404;2024-03-23T05:14:52;92038.06;;;7.51;100.00
65376;BME280;51976;47.332;9.404;2024-03-23T05:17:18;92027.56;;;7.55;100.00
65376;BME280;51976;47.332;9.404;2024-03-23T05:19:43;92023.84;;;7.51;100.00
65376;BME280;51976;47.332;9.404;2024-03-23T05:22:09;92013.16;;;7.45;100.00
65376;BME280;51976;47.332;9.404;2024-03-23T05:24:34;92010.19;;;7.47;100.00
65376;BME280;51976;47.332;9.404;2024-03-23T05:27:00;92003.06;;;7.37;100.00
65376;BME280;51976;47.332;9.404;2024-03-23T05:29:25;91992.75;;;7.50;100.00
65376;BME280;51976;47.332;9.404;2024-03-23T05:31:51;91981.66;;;7.61;100.00
65376;BME280;51976;47.332;9.404;2024-03-23T05:34:17;91979.00;;;7.56;100.00
65376;BME280;51976;47.332;9.404;2024-03-23T05:36:43;91969.13;;;7.52;100.00
65376;BME280;51976;47.332;9.404;2024-03-23T05:39:08;91970.59;;;7.39;100.00
65376;BME280;51976;47.332;9.404;2024-03-23T05:41:33;91962.41;;;7.54;100.00
65376;BME280;51976;47.332;9.404;2024-03-23T05:44:01;91959.72;;;7.54;100.00
65376;BME280;51976;47.332;9.404;2024-03-23T05:46:26;91962.63;;;7.34;100.00
65376;BME280;51976;47.332;9.404;2024-03-23T05:48:52;91951.81;;;7.39;100.00
65376;BME280;51976;47.332;9.404;2024-03-23T05:51:17;91932.16;;;7.48;100.00
65376;BME280;51976;47.332;9.404;2024-03-23T05:53:43;91940.84;;;7.64;100.00
65376;BME280;51976;47.332;9.404;2024-03-23T05:56:08;91930.53;;;7.71;100.00
65376;BME280;51976;47.332;9.404;2024-03-23T05:58:34;91925.63;;;7.78;100.00
65376;BME280;51976;47.332;9.404;2024-03-23T06:01:02;91934.59;;;7.93;100.00
65376;BME280;51976;47.332;9.404;2024-03-23T06:03:28;91929.66;;;8.00;100.00
65376;BME280;51976;47.332;9.404;2024-03-23T06:05:54;91923.94;;;8.06;100.00
65376;BME280;51976;47.332;9.404;2024-03-23T06:08:20;91926.63;;;8.06;100.00
65376;BME280;51976;47.332;9.404;2024-03-23T06:10:46;91951.06;;;8.05;100.00
65376;BME280;51976;47.332;9.404;2024-03-23T06:13:12;91951.06;;;8.05;100.00
65376;BME280;51976;47.332;9.404;2024-03-23T06:15:37;91946.94;;;8.12;100.00
65376;BME280;51976;47.332;9.404;2024-03-23T06:18:03;91948.03;;;8.30;100.00
65376;BME280;51976;47.332;9.404;2024-03-23T06:20:29;91967.88;;;8.34;100.00
65376;BME280;51976;47.332;9.404;2024-03-23T06:22:55;91994.59;;;7.54;100.00
65376;BME280;51976;47.332;9.404;2024-03-23T06:25:21;91995.72;;;7.48;100.00
65376;BME280;51976;47.332;9.404;2024-03-23T06:27:46;92010.16;;;7.52;100.00
65376;BME280;51976;47.332;9.404;2024-03-23T06:30:12;92018.41;;;7.85;100.00
65376;BME280;51976;47.332;9.404;2024-03-23T06:32:37;92023.28;;;8.25;100.00
65376;BME280;51976;47.332;9.404;2024-03-23T06:35:03;92011.53;;;8.45;100.00
65376;BME280;51976;47.332;9.404;2024-03-23T06:37:34;92024.09;;;8.68;100.00
65376;BME280;51976;47.332;9.404;2024-03-23T06:39:59;92031.03;;;9.07;100.00
65376;BME280;51976;47.332;9.404;2024-03-23T06:42:24;92038.59;;;9.56;100.00
65376;BME280;51976;47.332;9.404;2024-03-23T06:44:50;92053.88;;;9.74;100.00
65376;BME280;51976;47.332;9.404;2024-03-23T06:47:15;92056.78;;;9.78;100.00
65376;BME280;51976;47.332;9.404;2024-03-23T06:49:40;92060.78;;;9.80;100.00
65376;BME280;51976;47.332;9.404;2024-03-23T06:52:06;92080.00;;;9.88;100.00
65376;BME280;51976;47.332;9.404;2024-03-23T06:54:31;92098.78;;;9.93;100.00
65376;BME280;51976;47.332;9.404;2024-03-23T06:56:57;92109.84;;;9.91;100.00
65376;BME280;51976;47.332;9.404;2024-03-23T06:59:22;92111.34;;;9.65;100.00
65376;BME280;51976;47.332;9.404;2024-03-23T07:01:47;92125.19;;;9.58;100.00
65376;BME280;51976;47.332;9.404;2024-03-23T07:04:13;92130.50;;;9.44;100.00
65376;BME280;51976;47.332;9.404;2024-03-23T07:06:44;92144.63;;;9.36;100.00
65376;BME280;51976;47.332;9.404;2024-03-23T07:09:10;92143.31;;;9.34;100.00
65376;BME280;51976;47.332;9.404;2024-03-23T07:11:36;92144.47;;;9.09;100.00
65376;BME280;51976;47.332;9.404;2024-03-23T07:14:01;92150.56;;;9.14;100.00
65376;BME280;51976;47.332;9.404;2024-03-23T07:16:28;92150.34;;;9.11;100.00
65376;BME280;51976;47.332;9.404;2024-03-23T07:18:53;92167.34;;;9.06;100.00
65376;BME280;51976;47.332;9.404;2024-03-23T07:21:19;92172.50;;;9.03;100.00
65376;BME280;51976;47.332;9.404;2024-03-23T07:23:44;92135.19;;;8.77;100.00
65376;BME280;51976;47.332;9.404;2024-03-23T07:26:10;92179.22;;;8.81;100.00
65376;BME280;51976;47.332;9.404;2024-03-23T07:28:35;92188.28;;;8.67;100.00
65376;BME280;51976;47.332;9.404;2024-03-23T07:31:06;92190.44;;;8.65;100.00
65376;BME280;51976;47.332;9.404;2024-03-23T07:33:34;92181.81;;;8.44;100.00
65376;BME280;51976;47.332;9.404;2024-03-23T07:35:59;92194.44;;;8.43;100.00
65376;BME280;51976;47.332;9.404;2024-03-23T07:38:27;92211.78;;;8.22;100.00
65376;BME280;51976;47.332;9.404;2024-03-23T07:40:55;92213.53;;;8.08;100.00
65376;BME280;51976;47.332;9.404;2024-03-23T07:43:28;92228.41;;;7.95;100.00
65376;BME280;51976;47.332;9.404;2024-03-23T07:45:53;92241.91;;;7.85;100.00
65376;BME280;51976;47.332;9.404;2024-03-23T07:48:21;92250.41;;;7.63;100.00
65376;BME280;51976;47.332;9.404;2024-03-23T07:50:57;92240.91;;;7.76;100.00
65376;BME280;51976;47.332;9.404;2024-03-23T07:53:22;92227.25;;;7.72;100.00
65376;BME280;51976;47.332;9.404;2024-03-23T07:55:58;92235.84;;;7.69;100.00
65376;BME280;51976;47.332;9.404;2024-03-23T07:58:24;92261.81;;;7.79;100.00
65376;BME280;51976;47.332;9.404;2024-03-23T08:00:50;92267.44;;;7.82;100.00
65376;BME280;51976;47.332;9.404;2024-03-23T08:03:15;92271.78;;;7.73;100.00
65376;BME280;51976;47.332;9.404;2024-03-23T08:05:41;92283.19;;;7.50;100.00
65376;BME280;51976;47.332;9.404;2024-03-23T08:08:06;92278.84;;;7.59;100.00
65376;BME280;51976;47.332;9.404;2024-03-23T08:10:32;92295.94;;;7.68;100.00
65376;BME280;51976;47.332;9.404;2024-03-23T08:12:57;92289.56;;;7.64;100.00
65376;BME280;51976;47.332;9.404;2024-03-23T08:15:22;92288.66;;;7.74;100.00
65376;BME280;51976;47.332;9.404;2024-03-23T08:17:49;92294.47;;;7.91;100.00
65376;BME280;51976;47.332;9.404;2024-03-23T08:20:14;92286.50;;;7.76;100.00
65376;BME280;51976;47.332;9.404;2024-03-23T08:22:40;92281.94;;;7.76;100.00
65376;BME280;51976;47.332;9.404;2024-03-23T08:25:05;92295.84;;;7.89;100.00
65376;BME280;51976;47.332;9.404;2024-03-23T08:27:31;92302.88;;;7.79;100.00
65376;BME280;51976;47.332;9.404;2024-03-23T08:29:56;92294.81;;;7.79;100.00
65376;BME280;51976;47.332;9.404;2024-03-23T08:32:22;92302.91;;;7.69;100.00
65376;BME280;51976;47.332;9.404;2024-03-23T08:34:47;92300.31;;;7.59;100.00
65376;BME280;51976;47.332;9.404;2024-03-23T08:37:12;92311.81;;;7.65;100.00
65376;BME280;51976;47.332;9.404;2024-03-23T08:39:38;92323.41;;;7.50;100.00
65376;BME280;51976;47.332;9.404;2024-03-23T08:42:03;92325.56;;;7.48;100.00
65376;BME280;51976;47.332;9.404;2024-03-23T08:44:29;92302.63;;;7.27;100.00
65376;BME280;51976;47.332;9.404;2024-03-23T08:46:57;92321.38;;;7.27;100.00
65376;BME280;51976;47.332;9.404;2024-03-23T08:49:22;92319.75;;;7.36;100.00
65376;BME280;51976;47.332;9.404;2024-03-23T08:51:47;92333.69;;;7.33;100.00
65376;BME280;51976;47.332;9.404;2024-03-23T08:54:13;92345.22;;;7.28;100.00
65376;BME280;51976;47.332;9.404;2024-03-23T08:56:38;92348.00;;;7.03;100.00
65376;BME280;51976;47.332;9.404;2024-03-23T08:59:03;92373.69;;;7.14;100.00
65376;BME280;51976;47.332;9.404;2024-03-23T09:01:30;92335.41;;;6.98;100.00
65376;BME280;51976;47.332;9.404;2024-03-23T09:03:55;92375.34;;;7.05;100.00
65376;BME280;51976;47.332;9.404;2024-03-23T09:06:20;92397.63;;;6.80;100.00
65376;BME280;51976;47.332;9.404;2024-03-23T09:08:46;92395.47;;;6.62;100.00
65376;BME280;51976;47.332;9.404;2024-03-23T09:11:13;92390.13;;;6.52;100.00
65376;BME280;51976;47.332;9.404;2024-03-23T09:13:38;92407.81;;;6.48;100.00
65376;BME280;51976;47.332;9.404;2024-03-23T09:16:05;92424.69;;;6.53;100.00
65376;BME280;51976;47.332;9.404;2024-03-23T09:18:34;92420.63;;;6.35;100.00
65376;BME280;51976;47.332;9.404;2024-03-23T09:21:01;92436.72;;;6.40;100.00
65376;BME280;51976;47.332;9.404;2024-03-23T09:23:26;92448.47;;;6.34;100.00
65376;BME280;51976;47.332;9.404;2024-03-23T09:25:52;92449.28;;;6.20;100.00
65376;BME280;51976;47.332;9.404;2024-03-23T09:28:17;92455.38;;;6.05;100.00
65376;BME280;51976;47.332;9.404;2024-03-23T09:30:43;92463.13;;;5.91;100.00
65376;BME280;51976;47.332;9.404;2024-03-23T09:33:11;92462.25;;;5.86;100.00
65376;BME280;51976;47.332;9.404;2024-03-23T09:35:41;92465.53;;;5.93;100.00
65376;BME280;51976;47.332;9.404;2024-03-23T09:38:07;92475.38;;;5.87;100.00
65376;BME280;51976;47.332;9.404;2024-03-23T09:40:34;92476.50;;;5.96;100.00
65376;BME280;51976;47.332;9.404;2024-03-23T09:43:00;92477.25;;;5.87;100.00
65376;BME280;51976;47.332;9.404;2024-03-23T09:45:29;92465.94;;;5.69;100.00
65376;BME280;51976;47.332;9.404;2024-03-23T09:47:55;92479.59;;;5.73;100.00
65376;BME280;51976;47.332;9.404;2024-03-23T09:50:21;92491.88;;;5.69;100.00
65376;BME280;51976;47.332;9.404;2024-03-23T09:52:46;92480.06;;;5.60;100.00
65376;BME280;51976;47.332;9.404;2024-03-23T09:55:12;92463.66;;;5.36;100.00
65376;BME280;51976;47.332;9.404;2024-03-23T09:57:39;92485.34;;;5.44;100.00
65376;BME280;51976;47.332;9.404;2024-03-23T10:00:05;92473.81;;;5.39;100.00
65376;BME280;51976;47.332;9.404;2024-03-23T10:02:31;92443.84;;;5.32;100.00
65376;BME280;51976;47.332;9.404;2024-03-23T10:04:57;92477.69;;;5.63;100.00
65376;BME280;51976;47.332;9.404;2024-03-23T10:07:22;92482.13;;;5.48;100.00
65376;BME280;51976;47.332;9.404;2024-03-23T10:09:48;92483.94;;;5.32;100.00
65376;BME280;51976;47.332;9.404;2024-03-23T10:12:19;92500.41;;;5.14;100.00
65376;BME280;51976;47.332;9.404;2024-03-23T10:14:45;92504.09;;;5.07;100.00
65376;BME280;51976;47.332;9.404;2024-03-23T10:17:19;92479.56;;;5.16;100.00
65376;BME280;51976;47.332;9.404;2024-03-23T10:19:46;92478.34;;;4.91;100.00
65376;BME280;51976;47.332;9.404;2024-03-23T10:22:14;92480.38;;;4.79;100.00
65376;BME280;51976;47.332;9.404;2024-03-23T10:24:39;92478.25;;;4.81;100.00
65376;BME280;51976;47.332;9.404;2024-03-23T10:27:05;92491.81;;;4.74;100.00
65376;BME280;51976;47.332;9.404;2024-03-23T10:29:30;92494.50;;;4.74;100.00
65376;BME280;51976;47.332;9.404;2024-03-23T10:32:17;92481.91;;;4.70;100.00
65376;BME280;51976;47.332;9.404;2024-03-23T10:34:42;92490.06;;;4.53;100.00
65376;BME280;51976;47.332;9.404;2024-03-23T10:37:08;92476.56;;;4.70;100.00
65376;BME280;51976;47.332;9.404;2024-03-23T10:39:39;92485.22;;;4.50;100.00
65376;BME280;51976;47.332;9.404;2024-03-23T10:42:08;92499.63;;;4.49;100.00
65376;BME280;51976;47.332;9.404;2024-03-23T10:44:35;92475.22;;;4.35;100.00
65376;BME280;51976;47.332;9.404;2024-03-23T10:47:01;92494.16;;;4.66;100.00
65376;BME280;51976;47.332;9.404;2024-03-23T10:49:29;92498.38;;;4.57;100.00
65376;BME280;51976;47.332;9.404;2024-03-23T10:51:56;92503.75;;;4.62;100.00
65376;BME280;51976;47.332;9.404;2024-03-23T10:54:24;92487.53;;;4.73;100.00
65376;BME280;51976;47.332;9.404;2024-03-23T10:56:53;92472.22;;;4.59;100.00
65376;BME280;51976;47.332;9.404;2024-03-23T10:59:22;92466.59;;;4.55;100.00
65376;BME280;51976;47.332;9.404;2024-03-23T11:01:54;92456.16;;;4.54;100.00
65376;BME280;51976;47.332;9.404;2024-03-23T11:04:40;92454.63;;;4.63;100.00
65376;BME280;51976;47.332;9.404;2024-03-23T11:07:30;92441.69;;;4.82;100.00
65376;BME280;51976;47.332;9.404;2024-03-23T11:09:59;92450.19;;;4.79;100.00
65376;BME280;51976;47.332;9.404;2024-03-23T11:12:31;92463.34;;;4.85;100.00
65376;BME280;51976;47.332;9.404;2024-03-23T11:15:01;92462.97;;;5.08;100.00
65376;BME280;51976;47.332;9.404;2024-03-23T11:17:28;92465.81;;;4.97;100.00
65376;BME280;51976;47.332;9.404;2024-03-23T11:19:58;92463.97;;;5.02;100.00
65376;BME280;51976;47.332;9.404;2024-03-23T11:22:39;92443.34;;;4.93;100.00
65376;BME280;51976;47.332;9.404;2024-03-23T11:25:21;92460.38;;;4.82;100.00
65376;BME280;51976;47.332;9.404;2024-03-23T11:27:49;92448.41;;;4.89;100.00
65376;BME280;51976;47.332;9.404;2024-03-23T11:30:17;92447.44;;;5.05;100.00
65376;BME280;51976;47.332;9.404;2024-03-23T11:32:44;92460.03;;;5.10;100.00
65376;BME280;51976;47.332;9.404;2024-03-23T11:35:09;92453.38;;;5.13;100.00
65376;BME280;51976;47.332;9.404;2024-03-23T11:37:36;92446.13;;;5.08;100.00
65376;BME280;51976;47.332;9.404;2024-03-23T11:40:17;92444.84;;;5.21;100.00
65376;BME280;51976;47.332;9.404;2024-03-23T11:42:42;92450.16;;;5.10;100.00
65376;BME280;51976;47.332;9.404;2024-03-23T11:45:09;92446.97;;;5.14;100.00
65376;BME280;51976;47.332;9.404;2024-03-23T11:47:34;92450.03;;;5.37;100.00
65376;BME280;51976;47.332;9.404;2024-03-23T11:50:00;92447.03;;;5.29;100.00
65376;BME280;51976;47.332;9.404;2024-03-23T11:52:25;92432.66;;;5.40;100.00
65376;BME280;51976;47.332;9.404;2024-03-23T11:54:50;92440.69;;;5.40;100.00
65376;BME280;51976;47.332;9.404;2024-03-23T11:57:16;92426.28;;;5.51;100.00
65376;BME280;51976;47.332;9.404;2024-03-23T11:59:41;92419.13;;;5.62;100.00
65376;BME280;51976;47.332;9.404;2024-03-23T12:02:08;92422.91;;;5.71;100.00
65376;BME280;51976;47.332;9.404;2024-03-23T12:04:35;92422.28;;;5.54;100.00
65376;BME280;51976;47.332;9.404;2024-03-23T12:07:18;92418.56;;;5.60;100.00
65376;BME280;51976;47.332;9.404;2024-03-23T12:09:44;92422.00;;;5.50;100.00
65376;BME280;51976;47.332;9.404;2024-03-23T12:12:14;92426.28;;;5.46;100.00
65376;BME280;51976;47.332;9.404;2024-03-23T12:14:44;92425.31;;;5.72;100.00
65376;BME280;51976;47.332;9.404;2024-03-23T12:17:12;92398.47;;;5.52;100.00
65376;BME280;51976;47.332;9.404;2024-03-23T12:19:38;92413.25;;;5.75;100.00
65376;BME280;51976;47.332;9.404;2024-03-23T12:22:04;92417.56;;;5.71;100.00
65376;BME280;51976;47.332;9.404;2024-03-23T12:24:31;92417.03;;;5.84;100.00
65376;BME280;51976;47.332;9.404;2024-03-23T12:27:01;92424.34;;;6.04;100.00
65376;BME280;51976;47.332;9.404;2024-03-23T12:29:30;92408.28;;;5.94;100.00
65376;BME280;51976;47.332;9.404;2024-03-23T12:31:59;92407.78;;;6.22;100.00
65376;BME280;51976;47.332;9.404;2024-03-23T12:34:25;92405.88;;;6.07;100.00
65376;BME280;51976;47.332;9.404;2024-03-23T12:36:50;92407.78;;;6.12;100.00
65376;BME280;51976;47.332;9.404;2024-03-23T12:39:16;92401.91;;;6.20;100.00
65376;BME280;51976;47.332;9.404;2024-03-23T12:41:41;92385.81;;;6.10;100.00
65376;BME280;51976;47.332;9.404;2024-03-23T12:44:06;92399.78;;;6.27;100.00
65376;BME280;51976;47.332;9.404;2024-03-23T12:46:33;92384.25;;;6.24;100.00
65376;BME280;51976;47.332;9.404;2024-03-23T12:48:59;92385.81;;;6.10;100.00
65376;BME280;51976;47.332;9.404;2024-03-23T12:51:24;92381.84;;;6.28;100.00
65376;BME280;51976;47.332;9.404;2024-03-23T12:53:50;92389.03;;;6.83;100.00
65376;BME280;51976;47.332;9.404;2024-03-23T12:56:15;92389.03;;;6.78;100.00
65376;BME280;51976;47.332;9.404;2024-03-23T12:58:41;92378.28;;;6.88;100.00
65376;BME280;51976;47.332;9.404;2024-03-23T13:01:06;92377.53;;;6.77;100.00
65376;BME280;51976;47.332;9.404;2024-03-23T13:03:32;92384.72;;;7.02;100.00
65376;BME280;51976;47.332;9.404;2024-03-23T13:05:57;92385.25;;;7.09;100.00
65376;BME280;51976;47.332;9.404;2024-03-23T13:08:22;92372.34;;;7.11;100.00
65376;BME280;51976;47.332;9.404;2024-03-23T13:10:51;92380.38;;;7.17;100.00
65376;BME280;51976;47.332;9.404;2024-03-23T13:13:17;92380.34;;;7.27;100.00
65376;BME280;51976;47.332;9.404;2024-03-23T13:15:42;92379.28;;;7.23;100.00
65376;BME280;51976;47.332;9.404;2024-03-23T13:18:07;92381.16;;;7.32;100.00
65376;BME280;51976;47.332;9.404;2024-03-23T13:20:35;92378.94;;;7.44;100.00
65376;BME280;51976;47.332;9.404;2024-03-23T13:23:01;92359.25;;;7.69;100.00
65376;BME280;51976;47.332;9.404;2024-03-23T13:25:26;92367.22;;;7.90;100.00
65376;BME280;51976;47.332;9.404;2024-03-23T13:27:52;92368.75;;;7.96;100.00
65376;BME280;51976;47.332;9.404;2024-03-23T13:30:17;92368.44;;;8.07;100.00
65376;BME280;51976;47.332;9.404;2024-03-23T13:32:42;92361.59;;;8.25;100.00
65376;BME280;51976;47.332;9.404;2024-03-23T13:35:08;92358.09;;;7.91;100.00
65376;BME280;51976;47.332;9.404;2024-03-23T13:37:33;92364.13;;;7.62;100.00
65376;BME280;51976;47.332;9.404;2024-03-23T13:39:59;92361.63;;;7.81;100.00
65376;BME280;51976;47.332;9.404;2024-03-23T13:42:24;92351.97;;;7.80;100.00
65376;BME280;51976;47.332;9.404;2024-03-23T13:44:51;92357.75;;;7.97;100.00
65376;BME280;51976;47.332;9.404;2024-03-23T13:47:16;92330.00;;;7.73;100.00
65376;BME280;51976;47.332;9.404;2024-03-23T13:49:41;92350.59;;;7.82;100.00